Time;durP1;ratioP1;P1;durP2;ratioP2;P2;SDS_P1;SDS_P2;PMS_P1;PMS_P2;Temp;Humidity;BMP_temperature;BMP_pressure;BME280_temperature;BME280_humidity;BME280_pressure;Samples;Min_cycle;Max_cycle;Signal;HPM_P1;HPM_P2
2022/10/24 00:00:57;;;;;;;11.57;6.87;;;;;;;12.95;100.00;100156.79;1720448;83;21093;-67
2022/10/24 00:03:24;;;;;;;10.65;6.97;;;;;;;12.99;100.00;100159.22;1720577;83;21041;-66
2022/10/24 00:05:52;;;;;;;8.85;5.97;;;;;;;12.93;100.00;100148.07;1720525;83;21093;-64
2022/10/24 00:08:19;;;;;;;12.68;7.00;;;;;;;13.02;100.00;100151.61;1720573;83;21194;-65
2022/10/24 00:10:47;;;;;;;13.85;7.35;;;;;;;12.92;100.00;100162.23;1720343;83;21054;-66
2022/10/24 00:13:14;;;;;;;12.95;7.15;;;;;;;13.14;100.00;100162.95;1720336;83;21518;-65
2022/10/24 00:15:45;;;;;;;12.28;6.65;;;;;;;13.08;100.00;100163.22;1720304;83;21057;-67
2022/10/24 00:18:11;;;;;;;11.90;6.95;;;;;;;12.87;100.00;100167.73;1720463;83;21101;-66
2022/10/24 00:20:38;;;;;;;11.95;6.90;;;;;;;13.05;100.00;100168.67;1720155;83;21141;-66
2022/10/24 00:23:06;;;;;;;9.75;7.12;;;;;;;12.87;100.00;100170.37;1719891;83;21049;-66
2022/10/24 00:25:34;;;;;;;11.12;7.60;;;;;;;12.91;100.00;100171.95;1701916;83;21055;-65
2022/10/24 00:28:02;;;;;;;13.38;7.47;;;;;;;12.75;100.00;100166.50;1720107;83;21061;-66
2022/10/24 00:30:30;;;;;;;12.60;7.92;;;;;;;12.62;100.00;100167.98;1720111;83;21593;-65
2022/10/24 00:32:58;;;;;;;8.63;6.50;;;;;;;12.54;100.00;100164.84;1719880;83;21014;-67
2022/10/24 00:35:24;;;;;;;7.33;5.83;;;;;;;12.68;100.00;100162.90;1724937;82;21080;-66
2022/10/24 00:37:52;;;;;;;7.80;6.17;;;;;;;12.63;100.00;100165.75;1725385;83;21053;-65
2022/10/24 00:40:19;;;;;;;9.88;6.58;;;;;;;12.50;100.00;100173.82;1725308;82;21053;-65
2022/10/24 00:42:47;;;;;;;7.90;6.10;;;;;;;12.54;100.00;100180.69;1725191;82;21069;-65
2022/10/24 00:45:47;;;;;;;10.20;6.30;;;;;;;12.47;100.00;100177.45;1695509;83;21200;-66
2022/10/24 00:48:31;;;;;;;10.53;7.00;;;;;;;12.37;100.00;100174.34;1650473;86;21072;-67
2022/10/24 00:51:26;;;;;;;14.23;7.00;;;;;;;12.22;100.00;100171.06;1657569;86;21125;-66
2022/10/24 00:54:00;;;;;;;9.23;6.80;;;;;;;12.25;100.00;100165.64;1657417;86;21140;-65
2022/10/24 00:56:31;;;;;;;10.98;7.28;;;;;;;12.17;100.00;100161.17;1657739;86;21080;-66
2022/10/24 00:58:59;;;;;;;12.45;7.05;;;;;;;12.40;100.00;100160.17;1657652;86;21296;-66
2022/10/24 01:01:25;;;;;;;12.28;7.53;;;;;;;12.39;100.00;100165.89;1676901;84;21088;-67
2022/10/24 01:03:52;;;;;;;8.60;6.67;;;;;;;12.52;100.00;100169.33;1690558;84;21041;-65
2022/10/24 01:07:04;;;;;;;11.00;7.22;;;;;;;12.53;100.00;100164.42;1690479;84;21080;-66
2022/10/24 01:09:58;;;;;;;12.13;6.92;;;;;;;12.53;100.00;100163.95;1690713;84;21119;-65
2022/10/24 01:12:56;;;;;;;16.37;8.10;;;;;;;12.65;100.00;100175.75;1690581;84;21114;-65
2022/10/24 01:15:46;;;;;;;8.20;5.65;;;;;;;12.75;100.00;100169.15;1690781;84;21005;-65
2022/10/24 01:18:47;;;;;;;10.80;6.55;;;;;;;12.65;100.00;100174.91;1690672;84;21064;-65
2022/10/24 01:21:28;;;;;;;10.08;6.28;;;;;;;12.82;100.00;100176.34;1691021;84;21530;-66
2022/10/24 01:24:18;;;;;;;14.07;6.42;;;;;;;12.86;100.00;100176.59;1690984;84;21119;-65
2022/10/24 01:27:08;;;;;;;14.68;7.00;;;;;;;12.93;100.00;100175.83;1690546;84;21581;-69
2022/10/24 01:30:00;;;;;;;;;;;;;;;12.97;100.00;100170.80;1690218;84;21053;-66
2022/10/24 01:33:06;;;;;;;10.15;6.22;;;;;;;13.04;100.00;100174.02;1673866;85;20183;-66
2022/10/24 01:35:51;;;;;;;11.03;6.58;;;;;;;12.82;100.00;100172.84;1670964;85;21078;-65
2022/10/24 01:38:44;;;;;;;10.40;5.95;;;;;;;12.85;100.00;100172.69;1678038;85;21158;-66
2022/10/24 01:41:20;;;;;;;10.35;6.47;;;;;;;12.92;100.00;100180.73;1677893;85;21178;-65
2022/10/24 01:44:01;;;;;;;9.45;5.83;;;;;;;12.72;100.00;100181.62;1679538;85;21465;-65
2022/10/24 01:46:30;;;;;;;9.65;6.03;;;;;;;12.97;100.00;100187.51;1683486;85;21076;-65
2022/10/24 01:49:01;;;;;;;10.90;6.67;;;;;;;12.91;100.00;100187.81;1683764;85;21017;-65
2022/10/24 01:51:28;;;;;;;14.65;7.10;;;;;;;12.90;100.00;100183.44;1683485;85;21103;-66
2022/10/24 01:53:55;;;;;;;13.80;6.97;;;;;;;12.79;100.00;100187.91;1683670;85;21117;-66
2022/10/24 01:56:25;;;;;;;15.00;7.22;;;;;;;13.01;100.00;100188.23;1683215;85;21083;-66
2022/10/24 01:58:51;;;;;;;9.40;6.17;;;;;;;12.77;100.00;100189.76;1683541;85;21072;-65
2022/10/24 02:01:21;;;;;;;12.33;8.10;;;;;;;12.91;100.00;100179.03;1680495;83;21090;-66
2022/10/24 02:03:54;;;;;;;10.58;6.78;;;;;;;12.80;100.00;100180.36;1678408;85;21085;-65
2022/10/24 02:06:31;;;;;;;12.20;7.30;;;;;;;13.03;100.00;100186.86;1678031;85;21961;-65
2022/10/24 02:09:01;;;;;;;10.30;6.53;;;;;;;12.98;100.00;100176.02;1678130;85;21640;-67
2022/10/24 02:11:27;;;;;;;11.10;6.87;;;;;;;13.02;100.00;100178.04;1678082;85;21713;-65
2022/10/24 02:14:13;;;;;;;11.80;7.35;;;;;;;13.17;100.00;100177.34;1677924;85;21082;-65
2022/10/24 02:16:41;;;;;;;11.03;6.30;;;;;;;13.27;100.00;100179.55;1678013;85;21125;-65
2022/10/24 02:19:09;;;;;;;14.23;7.75;;;;;;;13.12;100.00;100180.67;1677866;85;21067;-65
2022/10/24 02:21:44;;;;;;;11.55;7.08;;;;;;;13.01;100.00;100177.66;1677835;85;21065;-66
2022/10/24 02:24:23;;;;;;;14.33;7.62;;;;;;;12.95;100.00;100174.85;1677998;85;21649;-66
2022/10/24 02:27:06;;;;;;;14.38;7.47;;;;;;;12.83;100.00;100175.86;1677958;85;21070;-65
2022/10/24 02:29:58;;;;;;;11.40;7.12;;;;;;;12.85;100.00;100179.30;1678040;85;21058;-65
2022/10/24 02:32:28;;;;;;;13.08;6.85;;;;;;;12.94;100.00;100181.52;1638839;85;21999;-66
2022/10/24 02:34:55;;;;;;;12.40;6.97;;;;;;;12.99;100.00;100182.16;1678098;85;21109;-65
2022/10/24 02:37:22;;;;;;;13.35;6.65;;;;;;;12.98;100.00;100183.95;1650765;85;22153;-66
2022/10/24 02:39:50;;;;;;;14.58;7.50;;;;;;;12.84;100.00;100193.42;1678055;85;21057;-66
2022/10/24 02:42:18;;;;;;;11.03;7.35;;;;;;;12.69;100.00;100194.52;1677927;85;21081;-66
2022/10/24 02:44:46;;;;;;;11.48;7.95;;;;;;;12.65;100.00;100200.86;1678187;85;21261;-67
2022/10/24 02:47:13;;;;;;;13.32;7.83;;;;;;;12.63;100.00;100206.70;1678066;85;21071;-65
2022/10/24 02:49:39;;;;;;;15.10;8.05;;;;;;;12.56;100.00;100209.19;1678461;85;21128;-67
2022/10/24 02:52:06;;;;;;;15.78;7.97;;;;;;;12.63;100.00;100206.70;1678122;85;21108;-66
2022/10/24 02:54:33;;;;;;;13.18;7.30;;;;;;;12.60;100.00;100201.53;1678134;85;21072;-65
2022/10/24 02:57:01;;;;;;;16.27;8.75;;;;;;;12.71;100.00;100206.34;1678169;85;21254;-66
2022/10/24 02:59:28;;;;;;;14.33;8.23;;;;;;;12.62;100.00;100202.33;1678461;85;21576;-66
2022/10/24 03:01:55;;;;;;;12.82;8.10;;;;;;;12.64;100.00;100201.80;1678102;84;21559;-67
2022/10/24 03:04:21;;;;;;;13.38;8.00;;;;;;;12.63;100.00;100208.45;1678375;85;21077;-66
2022/10/24 03:06:49;;;;;;;14.18;7.72;;;;;;;12.70;100.00;100201.53;1678255;85;21085;-66
2022/10/24 03:09:15;;;;;;;19.15;9.40;;;;;;;12.71;100.00;100204.55;1678376;85;22289;-65
2022/10/24 03:11:42;;;;;;;17.82;8.33;;;;;;;12.73;100.00;100209.78;1678084;85;21045;-67
2022/10/24 03:14:09;;;;;;;12.15;6.80;;;;;;;12.64;100.00;100216.33;1678203;85;21384;-67
2022/10/24 03:16:37;;;;;;;13.10;8.18;;;;;;;12.67;100.00;100221.47;1678170;85;21053;-67
2022/10/24 03:19:03;;;;;;;11.97;7.58;;;;;;;12.68;100.00;100223.20;1677983;85;21057;-65
2022/10/24 03:21:30;;;;;;;15.80;7.65;;;;;;;12.58;100.00;100221.88;1678217;85;21212;-66
2022/10/24 03:23:57;;;;;;;10.20;6.58;;;;;;;12.57;100.00;100226.77;1678361;85;21553;-65
2022/10/24 03:26:25;;;;;;;12.55;7.92;;;;;;;12.70;100.00;100223.11;1678042;85;21069;-65
2022/10/24 03:28:51;;;;;;;12.45;7.15;;;;;;;12.62;100.00;100218.17;1678076;85;21058;-66
2022/10/24 03:31:17;;;;;;;13.83;8.50;;;;;;;12.71;100.00;100225.70;1678313;85;21042;-66
2022/10/24 03:33:46;;;;;;;15.72;9.05;;;;;;;12.72;100.00;100219.94;1677961;85;21507;-65
2022/10/24 03:36:13;;;;;;;16.85;8.23;;;;;;;12.69;100.00;100222.73;1671577;85;21050;-65
2022/10/24 03:38:39;;;;;;;17.92;9.55;;;;;;;12.57;100.00;100220.17;1670610;85;21137;-65
2022/10/24 03:41:07;;;;;;;21.45;9.05;;;;;;;12.61;100.00;100224.40;1670825;85;21593;-66
2022/10/24 03:43:34;;;;;;;16.52;8.53;;;;;;;12.66;100.00;100225.05;1672146;85;21013;-65
2022/10/24 03:46:02;;;;;;;15.35;9.48;;;;;;;12.67;100.00;100223.26;1678294;85;21048;-67
2022/10/24 03:48:29;;;;;;;17.77;9.08;;;;;;;12.60;100.00;100227.95;1677914;85;21065;-65
2022/10/24 03:50:56;;;;;;;17.55;9.20;;;;;;;12.71;100.00;100224.38;1678023;85;21069;-65
2022/10/24 03:53:24;;;;;;;18.17;10.15;;;;;;;12.67;100.00;100220.14;1677870;85;21506;-66
2022/10/24 03:55:50;;;;;;;19.00;10.03;;;;;;;12.53;100.00;100219.90;1678074;85;21591;-65
2022/10/24 03:58:17;;;;;;;13.90;9.40;;;;;;;12.67;100.00;100226.75;1678166;85;21541;-65
2022/10/24 04:00:44;;;;;;;12.30;8.23;;;;;;;12.70;100.00;100226.64;1678130;84;21021;-66
2022/10/24 04:03:11;;;;;;;14.87;8.10;;;;;;;12.74;100.00;100230.83;1678216;85;21148;-65
2022/10/24 04:05:38;;;;;;;14.38;8.60;;;;;;;12.78;100.00;100224.49;1677810;85;21013;-65
2022/10/24 04:08:07;;;;;;;13.32;8.73;;;;;;;12.86;100.00;100221.53;1677473;85;21088;-65
2022/10/24 04:10:35;;;;;;;14.40;8.60;;;;;;;12.75;100.00;100225.11;1677668;85;21658;-66
2022/10/24 04:13:01;;;;;;;10.95;7.95;;;;;;;12.65;100.00;100232.56;1677944;85;21615;-66
2022/10/24 04:15:28;;;;;;;13.95;8.73;;;;;;;12.59;100.00;100231.53;1650631;85;21092;-66
2022/10/24 04:17:54;;;;;;;17.70;9.25;;;;;;;12.52;100.00;100224.80;1678365;85;21544;-66
2022/10/24 04:20:22;;;;;;;14.65;9.08;;;;;;;12.52;100.00;100227.44;1678293;85;21143;-65
2022/10/24 04:22:49;;;;;;;18.25;9.80;;;;;;;12.43;100.00;100233.13;1677844;85;21113;-66
2022/10/24 04:25:16;;;;;;;17.80;9.70;;;;;;;12.46;100.00;100230.34;1678235;85;21640;-66
2022/10/24 04:27:44;;;;;;;13.50;9.50;;;;;;;12.47;100.00;100237.33;1678001;85;21075;-67
2022/10/24 04:30:12;;;;;;;19.20;9.50;;;;;;;12.39;100.00;100241.16;1678213;85;21084;-66
2022/10/24 04:32:39;;;;;;;15.00;10.25;;;;;;;12.35;100.00;100235.64;1678263;85;21116;-66
2022/10/24 04:35:06;;;;;;;16.55;9.85;;;;;;;12.34;100.00;100240.50;1681545;84;21166;-66
2022/10/24 04:37:33;;;;;;;17.55;9.73;;;;;;;12.44;100.00;100241.43;1690552;84;21110;-66
2022/10/24 04:40:03;;;;;;;15.88;8.80;;;;;;;12.50;100.00;100241.17;1690768;84;21544;-67
2022/10/24 04:42:30;;;;;;;16.95;9.63;;;;;;;12.43;100.00;100246.33;1690785;84;21071;-66
2022/10/24 04:44:56;;;;;;;15.53;9.50;;;;;;;12.37;100.00;100252.25;1691066;84;21020;-66
2022/10/24 04:47:22;;;;;;;17.75;9.28;;;;;;;12.34;100.00;100255.03;1690880;84;21140;-66
2022/10/24 04:49:49;;;;;;;13.68;8.43;;;;;;;12.36;100.00;100257.14;1690790;84;21620;-67
2022/10/24 04:52:16;;;;;;;12.98;8.60;;;;;;;12.44;100.00;100255.95;1690966;84;21045;-67
2022/10/24 04:54:43;;;;;;;17.05;8.68;;;;;;;12.33;100.00;100257.72;1660071;86;21140;-66
2022/10/24 04:57:10;;;;;;;11.65;8.93;;;;;;;12.34;100.00;100265.59;1706334;84;21099;-66
2022/10/24 04:59:36;;;;;;;18.00;10.03;;;;;;;12.27;100.00;100273.38;1706168;84;21130;-66
2022/10/24 05:02:02;;;;;;;20.57;10.15;;;;;;;12.32;100.00;100267.44;1706177;82;21119;-66
2022/10/24 05:04:29;;;;;;;15.58;10.08;;;;;;;12.52;100.00;100269.71;1706270;84;21060;-66
2022/10/24 05:06:56;;;;;;;19.85;11.03;;;;;;;12.46;100.00;100267.32;1706501;84;21037;-66
2022/10/24 05:09:22;;;;;;;18.17;10.75;;;;;;;12.48;100.00;100269.44;1706291;84;21076;-68
2022/10/24 05:11:49;;;;;;;22.75;9.70;;;;;;;12.53;100.00;100272.27;1706457;84;21132;-67
2022/10/24 05:14:15;;;;;;;16.80;10.23;;;;;;;12.79;100.00;100274.23;1706101;84;21060;-66
2022/10/24 05:16:43;;;;;;;23.57;11.05;;;;;;;12.82;100.00;100278.55;1706240;84;21040;-66
2022/10/24 05:19:10;;;;;;;18.45;10.10;;;;;;;12.91;100.00;100285.61;1706095;84;21048;-66
2022/10/24 05:21:37;;;;;;;22.95;11.18;;;;;;;12.84;100.00;100287.25;1706248;84;21059;-67
2022/10/24 05:24:03;;;;;;;18.48;11.12;;;;;;;12.68;100.00;100280.01;1706202;84;21228;-67
2022/10/24 05:26:30;;;;;;;16.97;10.15;;;;;;;12.71;100.00;100289.11;1706299;84;21065;-66
2022/10/24 05:28:57;;;;;;;15.32;10.08;;;;;;;12.88;100.00;100294.13;1706280;84;21560;-67
2022/10/24 05:31:23;;;;;;;16.20;9.88;;;;;;;12.80;100.00;100299.28;1706626;83;21556;-67
2022/10/24 05:33:50;;;;;;;16.15;9.75;;;;;;;12.78;100.00;100300.28;1660718;86;21095;-66
2022/10/24 05:36:17;;;;;;;18.50;10.38;;;;;;;12.95;100.00;100303.49;1675638;84;21879;-66
2022/10/24 05:38:44;;;;;;;13.83;8.93;;;;;;;12.97;100.00;100304.29;1685678;85;21516;-68
2022/10/24 05:41:11;;;;;;;17.65;9.80;;;;;;;12.92;100.00;100308.93;1685702;85;21136;-66
2022/10/24 05:43:37;;;;;;;18.37;9.65;;;;;;;12.98;100.00;100304.70;1685814;85;21073;-66
2022/10/24 05:46:04;;;;;;;15.23;7.92;;;;;;;13.03;100.00;100315.92;1685585;85;21104;-66
2022/10/24 05:48:30;;;;;;;18.73;9.35;;;;;;;13.13;100.00;100310.61;1686048;85;22170;-66
2022/10/24 05:50:57;;;;;;;20.15;10.53;;;;;;;13.14;100.00;100317.63;1685653;85;21049;-66
2022/10/24 05:53:25;;;;;;;19.67;11.63;;;;;;;13.11;100.00;100315.58;1720496;83;21074;-68
2022/10/24 05:55:52;;;;;;;22.80;11.83;;;;;;;13.15;100.00;100318.02;1720774;83;21112;-66
2022/10/24 05:58:21;;;;;;;16.82;11.30;;;;;;;13.12;100.00;100308.91;1720604;83;21568;-67
2022/10/24 06:00:48;;;;;;;20.48;10.85;;;;;;;13.12;100.00;100318.16;1720791;82;21172;-67
2022/10/24 06:03:15;;;;;;;23.42;11.80;;;;;;;13.25;100.00;100320.25;1726402;82;21170;-67
2022/10/24 06:05:41;;;;;;;21.82;11.55;;;;;;;13.27;100.00;100326.33;1720910;83;21026;-67
2022/10/24 06:08:08;;;;;;;21.17;11.70;;;;;;;13.23;100.00;100332.23;1720667;83;21527;-67
2022/10/24 06:10:36;;;;;;;24.32;11.28;;;;;;;13.29;100.00;100335.09;1720884;83;21101;-66
2022/10/24 06:13:05;;;;;;;17.92;10.88;;;;;;;13.34;100.00;100335.73;1720598;83;21089;-67
2022/10/24 06:15:32;;;;;;;18.77;10.70;;;;;;;13.38;100.00;100338.17;1720788;83;21522;-68
2022/10/24 06:18:00;;;;;;;23.98;11.57;;;;;;;13.47;100.00;100334.73;1720506;83;21042;-67
2022/10/24 06:20:26;;;;;;;22.25;10.98;;;;;;;13.63;100.00;100333.09;1720668;83;21065;-66
2022/10/24 06:22:53;;;;;;;19.02;11.38;;;;;;;13.62;100.00;100333.56;1720866;83;21045;-67
2022/10/24 06:25:19;;;;;;;17.17;10.80;;;;;;;13.62;100.00;100333.56;1720647;83;21216;-67
2022/10/24 06:27:45;;;;;;;12.37;8.65;;;;;;;13.70;100.00;100332.34;1720724;83;21088;-67
2022/10/24 06:30:12;;;;;;;16.77;10.95;;;;;;;13.64;100.00;100338.32;1685924;85;21025;-68
2022/10/24 06:32:39;;;;;;;16.52;9.33;;;;;;;13.64;100.00;100337.00;1720655;83;21084;-67
2022/10/24 06:35:07;;;;;;;15.43;9.85;;;;;;;13.86;100.00;100326.72;1685714;85;21829;-67
2022/10/24 06:37:35;;;;;;;14.18;9.40;;;;;;;13.93;100.00;100326.81;1678052;85;21124;-67
2022/10/24 06:40:01;;;;;;;16.02;8.48;;;;;;;13.97;100.00;100330.19;1677994;85;21707;-68
2022/10/24 06:42:28;;;;;;;19.80;9.83;;;;;;;14.11;100.00;100325.55;1678113;85;21595;-66
2022/10/24 06:44:55;;;;;;;13.43;9.08;;;;;;;14.18;100.00;100322.98;1678299;85;21057;-66
2022/10/24 06:47:21;;;;;;;15.25;9.75;;;;;;;14.27;100.00;100331.81;1678410;85;21060;-67
2022/10/24 06:49:48;;;;;;;16.60;8.95;;;;;;;14.33;100.00;100328.84;1678220;85;21169;-67
2022/10/24 06:52:14;;;;;;;15.98;9.53;;;;;;;14.48;100.00;100341.80;1677999;85;21105;-67
2022/10/24 06:54:42;;;;;;;27.20;10.32;;;;;;;14.57;100.00;100331.25;1678203;85;21521;-67
2022/10/24 06:57:09;;;;;;;16.65;10.18;;;;;;;14.57;100.00;100335.23;1712696;83;21061;-67
2022/10/24 06:59:35;;;;;;;18.70;10.15;;;;;;;14.66;100.00;100338.74;1713190;83;21061;-67
2022/10/24 07:02:03;;;;;;;22.17;11.53;;;;;;;14.63;100.00;100344.17;1712830;82;21019;-67
2022/10/24 07:04:31;;;;;;;17.42;10.18;;;;;;;14.51;100.00;100338.14;1712661;82;21058;-67
2022/10/24 07:06:58;;;;;;;19.55;9.95;;;;;;;14.54;100.00;100338.89;1712781;83;21146;-67
2022/10/24 07:09:25;;;;;;;33.83;11.80;;;;;;;14.52;100.00;100346.03;1712924;82;21041;-68
2022/10/24 07:11:52;;;;;;;18.75;11.12;;;;;;;14.60;100.00;100340.36;1712813;82;21343;-68
2022/10/24 07:14:20;;;;;;;23.90;11.03;;;;;;;14.67;100.00;100335.14;1712785;82;21039;-67
2022/10/24 07:16:46;;;;;;;20.08;11.00;;;;;;;14.70;100.00;100338.98;1712891;83;21057;-67
2022/10/24 07:19:13;;;;;;;20.20;9.90;;;;;;;14.89;100.00;100345.05;1712933;83;21046;-67
2022/10/24 07:21:40;;;;;;;23.70;10.25;;;;;;;14.74;100.00;100345.81;1712885;82;21597;-67
2022/10/24 07:24:07;;;;;;;31.48;10.28;;;;;;;14.78;100.00;100342.08;1712882;83;21085;-68
2022/10/24 07:26:34;;;;;;;17.80;9.85;;;;;;;14.90;100.00;100343.24;1712830;82;21150;-66
2022/10/24 07:29:02;;;;;;;14.98;8.30;;;;;;;14.89;100.00;100339.74;1712882;82;20979;-67
2022/10/24 07:31:31;;;;;;;15.90;8.60;;;;;;;14.96;100.00;100335.45;1713291;83;21053;-66
2022/10/24 07:33:59;;;;;;;16.12;8.65;;;;;;;15.00;100.00;100333.89;1712657;83;21061;-67
2022/10/24 07:36:26;;;;;;;14.75;9.00;;;;;;;15.09;100.00;100330.75;1717721;82;21053;-67
2022/10/24 07:38:55;;;;;;;17.90;9.18;;;;;;;15.22;100.00;100329.63;1725575;82;21219;-67
2022/10/24 07:41:27;;;;;;;14.20;9.75;;;;;;;15.36;100.00;100334.67;1725481;82;21064;-67
2022/10/24 07:43:58;;;;;;;16.67;9.60;;;;;;;15.28;100.00;100338.59;1725324;83;21098;-67
2022/10/24 07:46:25;;;;;;;14.47;9.23;;;;;;;15.42;100.00;100337.00;1724791;82;21123;-67
2022/10/24 07:48:52;;;;;;;17.20;9.00;;;;;;;15.38;100.00;100335.45;1725680;82;21051;-68
2022/10/24 07:51:19;;;;;;;22.93;9.85;;;;;;;15.38;100.00;100336.30;1725505;82;21430;-68
2022/10/24 07:53:45;;;;;;;16.07;9.70;;;;;;;15.50;100.00;100345.39;1725798;83;21045;-66
2022/10/24 07:56:14;;;;;;;16.57;8.70;;;;;;;15.67;100.00;100338.70;1725492;83;21597;-68
2022/10/24 07:58:42;;;;;;;16.73;7.90;;;;;;;15.72;100.00;100339.34;1725797;83;21077;-67
2022/10/24 08:01:20;;;;;;;14.20;7.58;;;;;;;15.70;100.00;100342.55;1725744;81;21107;-67
2022/10/24 08:03:48;;;;;;;14.85;7.28;;;;;;;15.63;100.00;100338.48;1725373;83;21937;-68
2022/10/24 08:06:17;;;;;;;12.23;7.45;;;;;;;15.61;100.00;100339.03;1725480;82;21684;-67
2022/10/24 08:08:44;;;;;;;16.42;8.08;;;;;;;15.67;100.00;100345.34;1725321;83;21589;-67
2022/10/24 08:11:17;;;;;;;12.35;7.05;;;;;;;15.64;100.00;100344.64;1725292;82;21643;-68
2022/10/24 08:13:45;;;;;;;12.30;7.70;;;;;;;15.58;100.00;100343.19;1725399;82;21060;-69
2022/10/24 08:16:13;;;;;;;17.12;8.85;;;;;;;15.69;100.00;100340.81;1725448;82;21924;-67
2022/10/24 08:18:39;;;;;;;14.73;8.10;;;;;;;15.60;100.00;100341.31;1725245;83;21044;-67
2022/10/24 08:21:09;;;;;;;16.65;7.65;;;;;;;15.71;100.00;100348.26;1690717;84;21068;-68
2022/10/24 08:23:40;;;;;;;12.85;7.10;;;;;;;15.55;100.00;100334.05;1690572;84;21597;-68
2022/10/24 08:26:09;;;;;;;13.80;7.05;;;;;;;15.71;100.00;100346.05;1690420;84;21067;-68
2022/10/24 08:28:36;;;;;;;11.90;6.87;;;;;;;15.78;100.00;100350.55;1690733;84;21264;-67
2022/10/24 08:31:12;;;;;;;17.67;7.28;;;;;;;15.94;100.00;100346.10;1690837;84;21012;-68
2022/10/24 08:33:39;;;;;;;10.20;6.70;;;;;;;15.76;100.00;100342.70;1690681;84;21025;-68
2022/10/24 08:36:14;;;;;;;11.45;7.03;;;;;;;15.99;100.00;100342.74;1690171;84;21089;-67
2022/10/24 08:38:41;;;;;;;13.40;7.90;;;;;;;16.10;100.00;100340.34;1685487;85;22097;-68
2022/10/24 08:41:15;;;;;;;12.78;6.87;;;;;;;16.20;100.00;100339.81;1720159;82;21014;-68
2022/10/24 08:43:42;;;;;;;11.85;7.15;;;;;;;16.38;100.00;100344.08;1703082;83;21527;-68
2022/10/24 08:46:35;;;;;;;13.08;7.42;;;;;;;16.47;100.00;100345.32;1723393;83;21004;-67
2022/10/24 08:51:13;;;;;;;16.20;6.80;;;;;;;15.63;100.00;100343.79;1796653;79;22607;-68
2022/10/24 08:53:41;;;;;;;15.43;8.28;;;;;;;15.96;100.00;100349.53;1742811;81;21042;-69
2022/10/24 08:56:08;;;;;;;13.08;7.75;;;;;;;15.95;100.00;100345.17;1756154;81;21190;-67
2022/10/24 08:58:41;;;;;;;15.78;8.08;;;;;;;15.98;100.00;100339.68;1756347;81;21633;-68
2022/10/24 09:01:33;;;;;;;13.75;7.55;;;;;;;16.04;100.00;100338.50;1720223;82;21109;-68
2022/10/24 09:04:04;;;;;;;12.98;7.45;;;;;;;16.11;100.00;100333.22;1696918;84;21069;-67
2022/10/24 13:31:46;;;;;;;32.25;19.55;;;;;;;14.84;100.00;100270.19;1782004;80;22673;-67
2022/10/24 13:34:22;;;;;;;29.48;17.57;;;;;;;15.06;100.00;100278.33;1756163;81;20992;-68
2022/10/24 13:37:06;;;;;;;22.07;14.13;;;;;;;15.09;100.00;100287.44;1755321;81;21173;-68
2022/10/24 13:39:49;;;;;;;25.15;14.93;;;;;;;14.99;100.00;100294.18;1756074;81;21016;-67
2022/10/24 13:42:44;;;;;;;20.62;12.00;;;;;;;14.96;100.00;100289.05;1754947;81;21040;-67
2022/10/24 13:45:34;;;;;;;16.27;11.00;;;;;;;14.96;100.00;100287.25;1755652;81;21081;-67
2022/10/24 13:48:12;;;;;;;22.77;12.78;;;;;;;14.96;100.00;100295.67;1721283;83;21091;-68
2022/10/24 13:50:48;;;;;;;22.42;13.53;;;;;;;14.97;100.00;100289.42;1697088;84;21099;-68
2022/10/24 13:53:28;;;;;;;24.32;13.18;;;;;;;14.97;100.00;100296.05;1722861;83;21496;-68
2022/10/24 13:55:59;;;;;;;30.27;14.87;;;;;;;14.89;100.00;100280.08;1692616;84;21023;-68
2022/10/24 13:58:26;;;;;;;25.88;13.85;;;;;;;14.87;100.00;100288.58;1722207;83;21513;-68
2022/10/24 14:01:02;;;;;;;24.98;14.50;;;;;;;14.94;100.00;100290.92;1722740;83;21088;-67
2022/10/24 14:03:30;;;;;;;25.15;14.50;;;;;;;15.07;100.00;100291.99;1722574;83;21136;-69
2022/10/24 14:06:02;;;;;;;21.65;11.45;;;;;;;15.01;100.00;100292.30;1722770;83;21573;-68
2022/10/24 14:08:35;;;;;;;22.27;13.35;;;;;;;14.98;100.00;100290.68;1722678;83;21575;-67
2022/10/24 14:11:05;;;;;;;27.67;14.05;;;;;;;14.92;100.00;100294.12;1722631;83;21089;-67
2022/10/24 14:13:36;;;;;;;28.45;16.23;;;;;;;14.92;100.00;100290.14;1722694;83;21103;-67
2022/10/24 14:16:05;;;;;;;47.27;20.97;;;;;;;14.87;100.00;100296.53;1722956;83;21155;-66
2022/10/24 14:18:35;;;;;;;42.38;22.98;;;;;;;14.93;100.00;100289.19;1722650;83;21299;-67
2022/10/24 14:21:04;;;;;;;40.03;22.25;;;;;;;14.91;100.00;100291.95;1716527;83;21160;-67
2022/10/24 14:23:35;;;;;;;40.23;19.95;;;;;;;14.86;100.00;100293.51;1693594;83;21096;-67
2022/10/24 14:26:08;;;;;;;36.33;20.77;;;;;;;14.88;100.00;100291.64;1693788;84;21079;-68
2022/10/24 14:28:57;;;;;;;39.90;20.23;;;;;;;14.89;100.00;100295.98;1665955;84;21281;-68
2022/10/24 14:31:29;;;;;;;23.38;13.68;;;;;;;14.87;100.00;100296.53;1681986;84;21072;-67
2022/10/24 14:33:57;;;;;;;35.40;18.57;;;;;;;14.84;100.00;100309.11;1712862;83;21053;-68
2022/10/24 14:36:29;;;;;;;40.85;20.45;;;;;;;14.77;100.00;100311.22;1713056;83;21942;-68
2022/10/24 14:38:57;;;;;;;44.42;20.82;;;;;;;14.87;100.00;100299.19;1713020;83;21077;-67
2022/10/24 14:41:40;;;;;;;43.50;17.50;;;;;;;14.84;100.00;100299.36;1713223;83;21812;-68
2022/10/24 14:44:07;;;;;;;28.00;16.37;;;;;;;14.85;100.00;100301.05;1722731;82;21071;-68
2022/10/24 14:46:40;;;;;;;26.40;16.30;;;;;;;14.82;100.00;100298.58;1737724;82;21050;-69
2022/10/24 14:49:32;;;;;;;28.60;17.00;;;;;;;14.79;100.00;100296.09;1737802;82;21614;-67
2022/10/24 14:52:13;;;;;;;;;;;;;;;14.73;100.00;100295.08;1740693;82;21067;-68
2022/10/24 14:54:43;;;;;;;37.10;18.85;;;;;;;14.59;100.00;100277.70;1738017;82;21774;-67
2022/10/24 14:57:19;;;;;;;40.10;21.73;;;;;;;14.31;100.00;100269.80;1736959;82;21070;-68
2022/10/24 14:59:47;;;;;;;47.98;24.65;;;;;;;14.14;100.00;100264.47;1737512;82;21044;-68
2022/10/24 15:02:36;;;;;;;45.00;22.55;;;;;;;14.06;100.00;100268.84;1737975;82;21083;-67
2022/10/24 15:05:23;;;;;;;40.83;21.27;;;;;;;14.05;100.00;100264.45;1716755;83;21110;-68
2022/10/24 15:08:01;;;;;;;38.08;20.40;;;;;;;13.99;100.00;100274.89;1734089;82;21114;-68
2022/10/24 15:10:38;;;;;;;36.85;19.80;;;;;;;14.16;100.00;100283.80;1737672;82;21544;-68
2022/10/24 15:13:24;;;;;;;34.95;18.70;;;;;;;14.00;100.00;100299.58;1737763;82;21091;-68
2022/10/24 15:15:57;;;;;;;31.35;17.30;;;;;;;14.00;100.00;100316.31;1737563;82;21067;-68
2022/10/24 15:18:28;;;;;;;25.43;15.40;;;;;;;13.84;100.00;100321.95;1737725;82;21043;-68
2022/10/24 15:21:06;;;;;;;24.15;14.10;;;;;;;13.76;100.00;100322.33;1737572;81;21043;-68
2022/10/24 15:23:35;;;;;;;26.95;16.80;;;;;;;13.83;100.00;100336.14;1737608;81;20992;-68
2022/10/24 15:26:15;;;;;;;32.40;18.65;;;;;;;13.61;100.00;100337.12;1737567;82;21634;-67
2022/10/24 15:29:13;;;;;;;34.27;19.00;;;;;;;13.63;100.00;100336.59;1737371;82;21099;-66
2022/10/24 15:31:42;;;;;;;38.40;21.00;;;;;;;13.45;100.00;100354.63;1737565;82;21566;-67
2022/10/24 15:34:17;;;;;;;43.50;23.38;;;;;;;13.42;100.00;100368.86;1737472;82;21270;-67
2022/10/24 15:36:46;;;;;;;49.20;23.65;;;;;;;13.36;100.00;100355.89;1736828;82;21558;-67
2022/10/24 15:39:23;;;;;;;46.80;25.08;;;;;;;13.36;100.00;100354.57;1737983;82;21087;-68
2022/10/24 15:41:50;;;;;;;44.80;24.25;;;;;;;13.39;100.00;100349.64;1737624;82;21110;-68
2022/10/24 15:44:21;;;;;;;108.97;53.10;;;;;;;13.23;100.00;100334.41;1723921;82;21032;-68
2022/10/24 15:46:48;;;;;;;87.27;45.03;;;;;;;13.18;100.00;100328.48;1706774;83;21255;-66
2022/10/24 15:49:14;;;;;;;100.15;55.10;;;;;;;13.10;100.00;100325.30;1687162;84;21099;-66
2022/10/24 15:51:43;;;;;;;88.07;49.35;;;;;;;13.17;100.00;100329.38;1707050;84;21119;-68